createdAt,value
2022-10-05T00:02:26.382Z,4.05
2022-10-05T00:04:56.492Z,4.60
2022-10-05T00:07:24.500Z,4.25
2022-10-05T00:10:00.299Z,4.13
2022-10-05T00:12:29.865Z,3.90
2022-10-05T00:15:00.688Z,4.38
2022-10-05T00:17:29.652Z,4.07
2022-10-05T00:19:56.644Z,4.97
2022-10-05T00:22:29.902Z,4.40
2022-10-05T00:24:59.978Z,3.90
2022-10-05T00:27:36.166Z,4.40
2022-10-05T00:30:13.240Z,3.90
2022-10-05T00:32:39.713Z,3.97
2022-10-05T00:35:06.669Z,4.23
2022-10-05T00:37:33.311Z,3.85
2022-10-05T00:39:59.773Z,3.42
2022-10-05T00:42:32.597Z,4.35
2022-10-05T00:45:21.847Z,3.78
2022-10-05T00:48:14.852Z,4.10
2022-10-05T00:51:15.079Z,4.13
2022-10-05T00:53:47.530Z,3.80
2022-10-05T00:56:46.310Z,3.97
2022-10-05T00:59:31.654Z,4.00
2022-10-05T01:02:34.365Z,4.03
2022-10-05T01:05:20.330Z,4.10
2022-10-05T01:08:11.326Z,4.20
2022-10-05T01:11:10.695Z,4.55
2022-10-05T01:14:12.266Z,4.10
2022-10-05T01:16:57.108Z,3.53
2022-10-05T01:19:32.372Z,4.05
2022-10-05T01:22:34.274Z,4.43
2022-10-05T01:25:22.915Z,4.90
2022-10-05T01:27:54.740Z,4.72
2022-10-05T01:30:22.286Z,4.83
2022-10-05T01:33:01.304Z,5.13
2022-10-05T01:35:44.318Z,5.45
2022-10-05T01:38:26.040Z,5.28
2022-10-05T01:41:16.485Z,5.35
2022-10-05T01:44:27.470Z,4.73
2022-10-05T01:47:09.339Z,5.40
2022-10-05T01:49:38.800Z,5.47
2022-10-05T01:52:43.934Z,5.45
2022-10-05T01:55:19.655Z,5.97
2022-10-05T01:58:11.478Z,5.40
2022-10-05T02:00:56.538Z,4.85
2022-10-05T02:03:28.186Z,5.10
2022-10-05T02:05:59.614Z,5.47
2022-10-05T02:08:34.933Z,5.55
2022-10-05T02:11:06.514Z,5.90
2022-10-05T02:13:44.158Z,5.43
2022-10-05T02:16:34.003Z,5.22
2022-10-05T02:19:10.469Z,5.18
2022-10-05T02:21:36.984Z,6.50
2022-10-05T02:24:09.861Z,5.43
2022-10-05T02:26:37.479Z,5.68
2022-10-05T02:29:08.461Z,5.55
2022-10-05T02:31:47.678Z,5.85
2022-10-05T02:34:30.571Z,5.38
2022-10-05T02:37:15.894Z,6.00
2022-10-05T02:40:16.621Z,5.78
2022-10-05T02:42:50.825Z,5.60
2022-10-05T02:45:36.510Z,5.47
2022-10-05T02:48:28.258Z,5.53
2022-10-05T02:51:08.935Z,5.17
2022-10-05T02:54:06.149Z,6.22
2022-10-05T02:56:52.452Z,5.80
2022-10-05T02:59:40.544Z,5.28
2022-10-05T03:02:07.018Z,5.72
2022-10-05T03:04:47.863Z,6.23
2022-10-05T03:07:35.773Z,5.68
2022-10-05T03:10:16.431Z,5.40
2022-10-05T03:12:52.569Z,5.53
2022-10-05T03:15:31.072Z,5.82
2022-10-05T03:18:11.452Z,6.67
2022-10-05T03:21:04.153Z,6.07
2022-10-05T03:23:49.716Z,5.00
2022-10-05T03:26:25.283Z,5.70
2022-10-05T03:29:17.780Z,5.50
2022-10-05T03:31:56.311Z,4.53
2022-10-05T03:34:31.932Z,5.13
2022-10-05T03:37:13.791Z,5.60
2022-10-05T03:39:47.484Z,5.50
2022-10-05T03:42:38.866Z,5.15
2022-10-05T03:45:30.491Z,5.37
2022-10-05T03:48:11.475Z,5.10
2022-10-05T03:50:54.934Z,6.20
2022-10-05T03:53:28.177Z,4.57
2022-10-05T03:56:09.955Z,5.00
2022-10-05T03:58:50.052Z,4.43
2022-10-05T04:01:22.704Z,4.63
2022-10-05T04:04:04.000Z,4.63
2022-10-05T04:06:44.393Z,4.43
2022-10-05T04:09:24.335Z,4.57
2022-10-05T04:12:06.657Z,4.30
2022-10-05T04:14:46.654Z,4.43
2022-10-05T04:17:17.968Z,4.00
2022-10-05T04:19:54.754Z,4.32
2022-10-05T04:22:25.405Z,4.30
2022-10-05T04:24:58.560Z,4.03
2022-10-05T04:27:39.204Z,4.18
2022-10-05T04:30:10.205Z,4.50
2022-10-05T04:32:44.053Z,4.03
2022-10-05T04:35:19.501Z,4.28
2022-10-05T04:38:10.793Z,4.57
2022-10-05T04:41:05.042Z,4.15
2022-10-05T04:43:40.502Z,4.10
2022-10-05T04:46:24.690Z,4.70
2022-10-05T04:49:08.362Z,4.15
2022-10-05T04:51:48.915Z,3.80
2022-10-05T04:54:44.243Z,4.28
2022-10-05T04:57:17.792Z,4.50
2022-10-05T05:00:09.100Z,4.57
2022-10-05T05:03:09.622Z,4.30
2022-10-05T05:06:15.797Z,4.47
2022-10-05T05:09:22.335Z,4.40
2022-10-05T05:11:57.025Z,4.15
2022-10-05T05:14:36.194Z,3.67
2022-10-05T05:17:20.763Z,3.30
2022-10-05T05:20:09.436Z,2.97
2022-10-05T05:23:20.226Z,2.75
2022-10-05T05:25:56.228Z,3.20
2022-10-05T05:28:31.918Z,2.67
2022-10-05T05:31:39.664Z,3.00
2022-10-05T05:34:32.031Z,2.63
2022-10-05T05:37:24.478Z,2.50
2022-10-05T05:40:05.906Z,2.75
2022-10-05T05:42:42.460Z,2.50
2022-10-05T05:45:20.830Z,2.60
2022-10-05T05:47:59.375Z,2.53
2022-10-05T05:50:30.360Z,2.92
2022-10-05T05:53:05.672Z,2.85
2022-10-05T05:55:46.394Z,2.95
2022-10-05T05:58:25.209Z,2.70
2022-10-05T06:01:04.632Z,3.37
2022-10-05T06:03:43.282Z,2.65
2022-10-05T06:06:14.259Z,3.65
2022-10-05T06:08:49.828Z,3.80
2022-10-05T06:11:37.216Z,3.72
2022-10-05T06:14:13.080Z,3.67
2022-10-05T06:16:47.424Z,3.60
2022-10-05T06:19:17.435Z,3.60
2022-10-05T06:22:16.446Z,3.70
2022-10-05T06:25:15.790Z,3.45
2022-10-05T06:28:03.714Z,3.70
2022-10-05T06:30:57.989Z,3.33
2022-10-05T06:33:36.328Z,3.53
2022-10-05T06:36:10.285Z,3.60
2022-10-05T06:38:59.601Z,3.38
2022-10-05T06:41:54.966Z,4.20
2022-10-05T06:44:39.535Z,3.67
2022-10-05T06:47:20.320Z,4.50
2022-10-05T06:50:39.453Z,4.20
2022-10-05T06:53:20.475Z,3.65
2022-10-05T06:55:55.809Z,3.70
2022-10-05T06:58:41.477Z,3.35
2022-10-05T07:01:26.313Z,3.50
2022-10-05T07:04:34.597Z,3.60
2022-10-05T07:07:24.094Z,3.95
2022-10-05T07:10:08.752Z,3.87
2022-10-05T07:12:54.989Z,3.70
2022-10-05T07:15:46.829Z,3.47
2022-10-05T07:18:41.405Z,3.40
2022-10-05T07:21:22.710Z,3.13
2022-10-05T07:24:13.189Z,3.80
2022-10-05T07:26:49.233Z,3.05
2022-10-05T07:29:24.330Z,3.10
2022-10-05T07:32:24.614Z,3.38
2022-10-05T07:35:04.236Z,3.13
2022-10-05T07:37:54.411Z,3.40
2022-10-05T07:40:44.911Z,2.85
2022-10-05T07:43:23.479Z,3.00
2022-10-05T07:45:58.359Z,3.47
2022-10-05T07:49:06.840Z,2.97
2022-10-05T07:51:39.028Z,3.03
2022-10-05T07:54:21.357Z,3.22
2022-10-05T07:57:20.120Z,2.70
2022-10-05T08:00:01.496Z,2.80
2022-10-05T08:02:42.956Z,2.50
2022-10-05T08:05:32.264Z,2.93
2022-10-05T08:08:11.002Z,3.20
2022-10-05T08:11:00.897Z,2.80
2022-10-05T08:13:35.414Z,2.80
2022-10-05T08:16:06.488Z,3.35
2022-10-05T08:19:10.676Z,2.97
2022-10-05T08:21:43.997Z,2.83
2022-10-05T08:24:18.825Z,2.60
2022-10-05T08:27:17.486Z,3.50
2022-10-05T08:29:59.669Z,2.95
2022-10-05T08:32:31.525Z,3.13
2022-10-05T08:35:03.982Z,3.05
2022-10-05T08:37:37.205Z,3.20
2022-10-05T08:40:18.785Z,3.33
2022-10-05T08:43:19.374Z,2.92
2022-10-05T08:46:23.151Z,3.20
2022-10-05T08:48:56.482Z,3.03
2022-10-05T08:52:04.972Z,2.90
2022-10-05T08:54:40.391Z,2.90
2022-10-05T08:57:30.448Z,3.47
2022-10-05T09:00:10.491Z,2.40
2022-10-05T09:02:49.024Z,2.97
2022-10-05T09:05:41.793Z,2.70
2022-10-05T09:08:27.035Z,3.00
2022-10-05T09:11:17.069Z,2.67
2022-10-05T09:13:55.591Z,2.47
2022-10-05T09:16:41.373Z,2.42
2022-10-05T09:19:25.940Z,2.50
2022-10-05T09:22:15.728Z,2.38
2022-10-05T09:25:02.757Z,2.70
2022-10-05T09:27:37.022Z,1.97
2022-10-05T09:30:30.749Z,2.05
2022-10-05T09:33:25.747Z,2.42
2022-10-05T09:36:44.745Z,2.20
2022-10-05T09:39:29.713Z,2.35
2022-10-05T09:42:24.220Z,2.17
2022-10-05T09:45:17.714Z,2.90
2022-10-05T09:48:22.121Z,3.00
2022-10-05T09:51:22.482Z,2.88
2022-10-05T09:54:01.041Z,2.85
2022-10-05T09:56:49.904Z,2.60
2022-10-05T09:59:42.874Z,2.10
2022-10-05T10:02:27.639Z,1.60
2022-10-05T10:05:22.870Z,1.70
2022-10-05T10:07:58.518Z,1.80
2022-10-05T10:10:56.700Z,1.73
2022-10-05T10:13:28.968Z,1.70
2022-10-05T10:16:10.768Z,2.15
2022-10-05T10:19:17.801Z,2.15
2022-10-05T10:22:14.485Z,1.95
2022-10-05T10:25:10.818Z,2.43
2022-10-05T10:27:54.174Z,2.00
2022-10-05T10:31:11.975Z,1.92
2022-10-05T10:34:16.353Z,1.98
2022-10-05T10:37:03.495Z,2.60
2022-10-05T10:39:38.614Z,2.63
2022-10-05T10:42:26.766Z,2.55
2022-10-05T10:45:19.334Z,2.50
2022-10-05T10:47:51.999Z,2.40
2022-10-05T10:50:35.076Z,2.47
2022-10-05T10:53:36.060Z,2.60
2022-10-05T10:56:11.916Z,2.85
2022-10-05T10:58:53.532Z,2.42
2022-10-05T11:01:25.944Z,2.10
2022-10-05T11:04:07.317Z,3.17
2022-10-05T11:06:43.218Z,3.10
2022-10-05T11:09:51.625Z,3.25
2022-10-05T11:12:50.192Z,2.50
2022-10-05T11:15:25.870Z,2.15
2022-10-05T11:18:15.573Z,2.50
2022-10-05T11:21:17.260Z,2.47
2022-10-05T11:24:10.998Z,2.85
2022-10-05T11:27:04.010Z,2.40
2022-10-05T11:29:41.474Z,2.90
2022-10-05T11:32:26.399Z,2.55
2022-10-05T11:35:07.836Z,2.40
2022-10-05T11:37:40.236Z,2.17
2022-10-05T11:40:18.839Z,2.42
2022-10-05T11:42:57.411Z,2.10
2022-10-05T11:45:38.394Z,2.75
2022-10-05T11:48:23.772Z,2.10
2022-10-05T11:51:19.240Z,1.85
2022-10-05T11:54:10.023Z,2.63
2022-10-05T11:56:41.776Z,2.30
2022-10-05T11:59:23.411Z,2.75
2022-10-05T12:02:01.344Z,2.53
2022-10-05T12:04:42.776Z,2.83
2022-10-05T12:07:54.286Z,2.80
2022-10-05T12:10:28.910Z,2.40
2022-10-05T12:13:27.380Z,2.00
2022-10-05T12:16:10.463Z,1.80
2022-10-05T12:18:39.366Z,2.30
2022-10-05T12:21:33.010Z,2.20
2022-10-05T12:24:07.305Z,1.85
2022-10-05T12:26:55.400Z,2.08
2022-10-05T12:29:44.975Z,1.93
2022-10-05T12:32:21.162Z,2.15
2022-10-05T12:35:46.998Z,2.33
2022-10-05T12:38:46.622Z,1.83
2022-10-05T12:41:29.061Z,2.30
2022-10-05T12:44:02.613Z,1.70
2022-10-05T12:46:50.166Z,1.73
2022-10-05T12:49:34.988Z,1.25
2022-10-05T12:52:05.496Z,1.60
2022-10-05T12:54:46.958Z,1.85
2022-10-05T12:57:42.726Z,1.80
2022-10-05T13:00:09.305Z,2.00
2022-10-05T13:03:01.270Z,1.80
2022-10-05T13:05:36.680Z,1.88
2022-10-05T13:08:08.061Z,1.98
2022-10-05T13:11:02.231Z,1.90
2022-10-05T13:13:38.004Z,1.88
2022-10-05T13:16:22.727Z,2.22
2022-10-05T13:18:58.876Z,1.88
2022-10-05T13:21:53.624Z,1.70
2022-10-05T13:24:32.136Z,1.80
2022-10-05T13:27:05.018Z,1.92
2022-10-05T13:29:38.662Z,1.60
2022-10-05T13:32:27.146Z,1.58
2022-10-05T13:34:59.961Z,1.60
2022-10-05T13:38:07.301Z,1.90
2022-10-05T13:40:50.852Z,2.30
2022-10-05T13:43:40.175Z,1.90
2022-10-05T13:46:18.749Z,2.15
2022-10-05T13:48:52.571Z,1.55
2022-10-05T13:51:23.801Z,1.60
2022-10-05T13:54:01.720Z,2.00
2022-10-05T13:56:39.713Z,1.80
2022-10-05T13:59:38.359Z,2.50
2022-10-05T14:02:12.288Z,2.20
2022-10-05T14:04:52.126Z,2.50
2022-10-05T14:07:48.207Z,2.80
2022-10-05T14:10:28.773Z,2.28
2022-10-05T14:12:55.644Z,2.85
2022-10-05T14:15:33.094Z,1.90
2022-10-05T14:17:59.660Z,2.13
2022-10-05T14:20:31.557Z,2.05
2022-10-05T14:23:01.804Z,1.98
2022-10-05T14:25:30.526Z,1.75
2022-10-05T14:28:03.341Z,1.98
2022-10-05T14:30:32.167Z,1.60
2022-10-05T14:33:04.386Z,1.88
2022-10-05T14:35:36.963Z,3.63
2022-10-05T14:38:18.434Z,2.08
2022-10-05T14:40:44.934Z,2.03
2022-10-05T14:43:14.167Z,2.03
2022-10-05T14:46:02.653Z,1.85
2022-10-05T14:48:40.732Z,2.10
2022-10-05T14:51:25.373Z,1.80
2022-10-05T14:54:14.870Z,1.88
2022-10-05T14:56:56.951Z,2.23
2022-10-05T14:59:33.882Z,1.48
2022-10-05T15:02:37.727Z,1.95
2022-10-05T15:05:24.786Z,2.25
2022-10-05T15:07:53.070Z,1.73
2022-10-05T15:10:43.861Z,1.70
2022-10-05T15:13:18.403Z,1.85
2022-10-05T15:15:50.182Z,1.50
2022-10-05T15:18:32.029Z,1.45
2022-10-05T15:21:26.496Z,1.80
2022-10-05T15:24:14.944Z,1.30
2022-10-05T15:26:50.622Z,1.70
2022-10-05T15:29:32.062Z,2.05
2022-10-05T15:32:14.659Z,1.60
2022-10-05T15:35:03.977Z,2.00
2022-10-05T15:37:49.255Z,1.70
2022-10-05T15:40:44.558Z,1.73
2022-10-05T15:43:16.370Z,2.20
2022-10-05T15:46:06.413Z,1.23
2022-10-05T15:49:08.475Z,1.80
2022-10-05T15:51:53.728Z,1.53
2022-10-05T15:54:43.014Z,1.60
2022-10-05T15:57:33.231Z,1.92
2022-10-05T16:00:02.198Z,1.42
2022-10-05T16:02:44.177Z,1.73
2022-10-05T16:05:53.583Z,1.47
2022-10-05T16:08:56.441Z,2.05
2022-10-05T16:11:27.686Z,1.90
2022-10-05T16:14:35.986Z,1.65
2022-10-05T16:17:28.770Z,1.50
2022-10-05T16:19:58.184Z,1.30
2022-10-05T16:22:43.807Z,1.50
2022-10-05T16:25:22.195Z,1.30
2022-10-05T16:28:12.504Z,1.17
2022-10-05T16:30:58.759Z,1.45
2022-10-05T16:33:44.488Z,1.30
2022-10-05T16:36:25.981Z,1.40
2022-10-05T16:38:59.182Z,1.63
2022-10-05T16:41:34.972Z,1.60
2022-10-05T16:44:33.777Z,1.80
2022-10-05T16:47:32.343Z,1.27
2022-10-05T16:50:19.957Z,1.60
2022-10-05T16:52:52.257Z,1.38
2022-10-05T16:55:29.396Z,1.80
2022-10-05T16:57:57.955Z,1.42
2022-10-05T17:00:51.986Z,1.53
2022-10-05T17:03:29.775Z,1.58
2022-10-05T17:06:25.988Z,2.00
2022-10-05T17:09:20.354Z,2.05
2022-10-05T17:12:14.677Z,1.48
2022-10-05T17:14:59.661Z,2.90
2022-10-05T17:17:54.189Z,3.40
2022-10-05T17:20:33.807Z,1.48
2022-10-05T17:23:29.164Z,2.17
2022-10-05T17:26:03.746Z,1.88
2022-10-05T17:29:11.930Z,1.83
2022-10-05T17:32:30.359Z,1.83
2022-10-05T17:35:02.865Z,2.35
2022-10-05T17:37:39.416Z,1.75
2022-10-05T17:40:35.344Z,2.00
2022-10-05T17:43:26.798Z,1.60
2022-10-05T17:45:56.672Z,2.05
2022-10-05T17:48:44.118Z,2.00
2022-10-05T17:51:47.654Z,2.10
2022-10-05T17:54:42.296Z,1.80
2022-10-05T17:57:08.702Z,1.70
2022-10-05T17:59:56.821Z,1.80
2022-10-05T18:02:36.269Z,1.60
2022-10-05T18:05:12.441Z,2.22
2022-10-05T18:07:40.640Z,2.10
2022-10-05T18:10:09.907Z,2.10
2022-10-05T18:12:36.329Z,2.05
2022-10-05T18:15:35.599Z,1.92
2022-10-05T18:18:40.901Z,1.80
2022-10-05T18:21:13.449Z,2.03
2022-10-05T18:23:59.866Z,2.07
2022-10-05T18:27:15.330Z,1.85
2022-10-05T18:30:03.125Z,2.00
2022-10-05T18:32:52.625Z,2.00
2022-10-05T18:35:44.125Z,2.00
2022-10-05T18:38:20.615Z,1.73
2022-10-05T18:41:12.784Z,1.58
2022-10-05T18:44:05.712Z,1.98
2022-10-05T18:46:38.308Z,2.40
2022-10-05T18:49:28.916Z,2.05
2022-10-05T18:52:22.892Z,2.07
2022-10-05T18:55:19.110Z,1.83
2022-10-05T18:58:25.903Z,1.83
2022-10-05T19:01:15.026Z,1.60
2022-10-05T19:04:10.750Z,1.80
2022-10-05T19:06:43.736Z,1.80
2022-10-05T19:09:28.842Z,1.80
2022-10-05T19:11:59.908Z,1.70
2022-10-05T19:14:37.598Z,1.40
2022-10-05T19:17:23.967Z,2.20
2022-10-05T19:19:53.119Z,2.00
2022-10-05T19:22:51.986Z,1.50
2022-10-05T19:25:32.829Z,1.70
2022-10-05T19:28:18.278Z,2.20
2022-10-05T19:31:00.383Z,1.70
2022-10-05T19:34:04.766Z,2.10
2022-10-05T19:36:40.851Z,2.08
2022-10-05T19:39:11.136Z,1.85
2022-10-05T19:41:52.754Z,1.70
2022-10-05T19:44:28.891Z,2.90
2022-10-05T19:47:22.389Z,2.30
2022-10-05T19:49:51.814Z,1.95
2022-10-05T19:52:24.645Z,1.13
2022-10-05T19:55:22.412Z,0.88
2022-10-05T19:57:51.709Z,0.60
2022-10-05T20:00:20.791Z,2.10
2022-10-05T20:02:47.396Z,3.10
2022-10-05T20:05:14.202Z,0.90
2022-10-05T20:07:41.135Z,0.88
2022-10-05T20:10:29.013Z,2.22
2022-10-05T20:12:58.615Z,1.47
2022-10-05T20:15:52.970Z,2.30
2022-10-05T20:18:57.081Z,0.88
2022-10-05T20:21:40.022Z,0.50
2022-10-05T20:24:17.259Z,0.55
2022-10-05T20:27:02.188Z,1.20
2022-10-05T20:29:30.344Z,0.60
2022-10-05T20:31:56.801Z,0.50
2022-10-05T20:34:23.848Z,0.40
2022-10-05T20:36:51.137Z,0.30
2022-10-05T20:39:18.811Z,0.50
2022-10-05T20:41:45.470Z,0.70
2022-10-05T20:44:13.297Z,0.40
2022-10-05T20:46:41.611Z,0.77
2022-10-05T20:49:10.627Z,0.57
2022-10-05T20:51:40.452Z,0.50
2022-10-05T20:54:08.048Z,0.80
2022-10-05T20:56:34.882Z,0.80
2022-10-05T20:59:01.385Z,0.40
2022-10-05T21:01:28.957Z,0.47
2022-10-05T21:03:55.733Z,0.40
2022-10-05T21:06:22.457Z,0.40
2022-10-05T21:08:51.358Z,0.50
2022-10-05T21:11:17.877Z,0.55
2022-10-05T21:13:45.631Z,0.50
2022-10-05T21:16:13.983Z,0.70
2022-10-05T21:18:40.623Z,0.40
2022-10-05T21:21:07.646Z,0.57
2022-10-05T21:23:34.567Z,0.30
2022-10-05T21:26:01.706Z,0.30
2022-10-05T21:28:28.995Z,0.30
2022-10-05T21:30:55.689Z,0.40
2022-10-05T21:33:22.145Z,0.30
2022-10-05T21:35:48.550Z,0.40
2022-10-05T21:38:15.011Z,0.30
2022-10-05T21:40:43.319Z,0.63
2022-10-05T21:43:09.824Z,0.40
2022-10-05T21:45:36.383Z,0.20
2022-10-05T21:48:03.320Z,0.40
2022-10-05T21:50:29.768Z,0.40
2022-10-05T21:52:56.252Z,0.23
2022-10-05T21:55:22.778Z,0.50
2022-10-05T21:57:49.248Z,0.20
2022-10-05T22:00:16.698Z,0.40
2022-10-05T22:02:43.097Z,0.30
2022-10-05T22:05:09.661Z,0.43
2022-10-05T22:07:36.103Z,0.43
2022-10-05T22:10:02.833Z,0.50
2022-10-05T22:12:29.311Z,0.40
2022-10-05T22:14:55.792Z,0.40
2022-10-05T22:17:31.036Z,0.30
2022-10-05T22:20:01.381Z,0.30
2022-10-05T22:22:29.334Z,0.73
2022-10-05T22:24:56.287Z,0.20
2022-10-05T22:27:25.815Z,0.40
2022-10-05T22:29:53.120Z,0.50
2022-10-05T22:32:19.592Z,0.57
2022-10-05T22:34:46.416Z,0.40
2022-10-05T22:37:13.533Z,0.52
2022-10-05T22:39:40.257Z,0.73
2022-10-05T22:42:07.495Z,0.60
2022-10-05T22:44:34.488Z,0.80
2022-10-05T22:47:02.369Z,0.70
2022-10-05T22:49:28.792Z,0.57
2022-10-05T22:51:55.193Z,0.52
2022-10-05T22:54:22.944Z,0.50
2022-10-05T22:56:51.704Z,0.60
2022-10-05T22:59:18.160Z,0.50
2022-10-05T23:01:44.629Z,1.05
2022-10-05T23:04:11.862Z,0.68
2022-10-05T23:06:38.256Z,0.43
2022-10-05T23:09:04.737Z,0.70
2022-10-05T23:11:31.381Z,0.90
2022-10-05T23:13:58.684Z,0.98
2022-10-05T23:16:26.745Z,0.57
2022-10-05T23:18:55.073Z,0.83
2022-10-05T23:21:23.369Z,0.90
2022-10-05T23:23:52.607Z,0.80
2022-10-05T23:26:21.810Z,0.68
2022-10-05T23:28:49.277Z,0.98
2022-10-05T23:31:18.911Z,0.80
2022-10-05T23:33:45.634Z,1.27
2022-10-05T23:36:18.174Z,0.60
2022-10-05T23:38:45.298Z,0.82
2022-10-05T23:41:12.529Z,0.63
2022-10-05T23:43:39.671Z,0.60
2022-10-05T23:46:07.210Z,1.13
2022-10-05T23:48:37.935Z,1.30
2022-10-05T23:51:09.833Z,1.05
2022-10-05T23:53:36.462Z,0.80
2022-10-05T23:56:03.629Z,1.20
2022-10-05T23:58:30.642Z,1.10
